createdAt,value
2016-08-28T00:00:14.199Z,1007.58
2016-08-28T00:01:14.208Z,1007.57
2016-08-28T00:02:14.216Z,1007.6
2016-08-28T00:03:14.223Z,1007.52
2016-08-28T00:04:14.231Z,1007.43
2016-08-28T00:05:14.238Z,1007.44
2016-08-28T00:06:14.298Z,1007.55
2016-08-28T00:07:14.255Z,1007.59
2016-08-28T00:08:14.263Z,1007.54
2016-08-28T00:09:14.270Z,1007.54
2016-08-28T00:10:14.277Z,1007.5
2016-08-28T00:11:14.286Z,1007.41
2016-08-28T00:12:14.295Z,1007.43
2016-08-28T00:13:14.301Z,1007.34
2016-08-28T00:14:14.307Z,1007.24
2016-08-28T00:15:14.315Z,1007.11
2016-08-28T00:16:14.322Z,1006.97
2016-08-28T00:17:14.332Z,1006.92
2016-08-28T00:18:14.336Z,1006.91
2016-08-28T00:19:14.343Z,1006.89
2016-08-28T00:20:14.352Z,1006.72
2016-08-28T00:21:14.359Z,1006.62
2016-08-28T00:22:14.367Z,1006.62
2016-08-28T00:23:14.373Z,1006.66
2016-08-28T00:24:14.380Z,1006.53
2016-08-28T00:25:14.392Z,1006.53
2016-08-28T00:26:14.399Z,1006.67
2016-08-28T00:27:14.402Z,1006.72
2016-08-28T00:28:14.410Z,1006.65
2016-08-28T00:29:14.416Z,1006.68
2016-08-28T00:30:15.526Z,1006.69
2016-08-28T00:31:14.432Z,1006.71
2016-08-28T00:32:14.441Z,1006.72
2016-08-28T00:33:14.446Z,1006.77
2016-08-28T00:34:14.454Z,1006.8
2016-08-28T00:35:14.461Z,1006.82
2016-08-28T00:36:14.469Z,1006.84
2016-08-28T00:37:14.476Z,1006.83
2016-08-28T00:38:14.484Z,1006.82
2016-08-28T00:39:14.491Z,1006.86
2016-08-28T00:40:14.498Z,1006.95
2016-08-28T00:41:14.505Z,1006.96
2016-08-28T00:42:14.512Z,1006.92
2016-08-28T00:43:14.519Z,1006.88
2016-08-28T00:44:14.527Z,1006.85
2016-08-28T00:45:14.534Z,1006.95
2016-08-28T00:46:14.539Z,1006.97
2016-08-28T00:47:14.550Z,1007.02
2016-08-28T00:48:14.558Z,1007.06
2016-08-28T00:49:14.565Z,1007.02
2016-08-28T00:50:14.573Z,1007.02
2016-08-28T00:51:14.579Z,1006.99
2016-08-28T00:52:15.587Z,1007.01
2016-08-28T00:53:14.593Z,1007.03
2016-08-28T00:54:14.602Z,1007.05
2016-08-28T00:55:14.608Z,1007.02
2016-08-28T00:56:14.617Z,1007.05
2016-08-28T00:57:14.625Z,1007.01
2016-08-28T00:58:14.631Z,1007
2016-08-28T00:59:14.640Z,1007.03
2016-08-28T01:00:14.648Z,1007.11
2016-08-28T01:01:14.655Z,1007.07
2016-08-28T01:02:14.661Z,1007.09
2016-08-28T01:03:14.668Z,1007.06
2016-08-28T01:04:14.677Z,1007
2016-08-28T01:05:14.690Z,1007.03
2016-08-28T01:06:14.691Z,1007.02
2016-08-28T01:07:14.699Z,1007.04
2016-08-28T01:08:14.706Z,1007.05
2016-08-28T01:09:14.713Z,1006.99
2016-08-28T01:10:14.721Z,1007.02
2016-08-28T01:11:14.729Z,1006.97
2016-08-28T01:12:14.736Z,1006.95
2016-08-28T01:13:14.742Z,1006.93
2016-08-28T01:14:15.249Z,1006.95
2016-08-28T01:15:14.757Z,1006.87
2016-08-28T01:16:14.765Z,1006.87
2016-08-28T01:17:14.771Z,1006.9
2016-08-28T01:18:14.779Z,1006.85
2016-08-28T01:19:14.788Z,1006.89
2016-08-28T01:20:14.793Z,1006.88
2016-08-28T01:21:14.802Z,1006.85
2016-08-28T01:22:14.812Z,1006.85
2016-08-28T01:23:14.830Z,1006.9
2016-08-28T01:24:14.823Z,1006.86
2016-08-28T01:25:14.831Z,1006.89
2016-08-28T01:26:14.837Z,1006.87
2016-08-28T01:27:14.846Z,1006.87
2016-08-28T01:28:14.853Z,1006.9
2016-08-28T01:29:14.910Z,1006.93
2016-08-28T01:30:14.868Z,1006.95
2016-08-28T01:31:14.874Z,1006.91
2016-08-28T01:32:14.882Z,1006.87
2016-08-28T01:33:14.889Z,1006.91
2016-08-28T01:34:15.048Z,1006.91
2016-08-28T01:35:14.904Z,1006.91
2016-08-28T01:36:15.012Z,1006.89
2016-08-28T01:37:14.920Z,1006.87
2016-08-28T01:38:14.924Z,1006.88
2016-08-28T01:39:14.933Z,1006.86
2016-08-28T01:40:14.941Z,1006.88
2016-08-28T01:41:14.948Z,1006.82
2016-08-28T01:42:14.954Z,1006.85
2016-08-28T01:43:14.963Z,1006.83
2016-08-28T01:44:14.970Z,1006.86
2016-08-28T01:45:14.976Z,1006.83
2016-08-28T01:46:14.983Z,1006.83
2016-08-28T01:47:14.989Z,1006.83
2016-08-28T01:48:14.999Z,1006.83
2016-08-28T01:49:15.006Z,1006.82
2016-08-28T01:50:15.013Z,1006.86
2016-08-28T01:51:15.172Z,1006.86
2016-08-28T01:52:15.028Z,1006.87
2016-08-28T01:53:15.042Z,1006.87
2016-08-28T01:54:15.043Z,1006.89
2016-08-28T01:55:15.050Z,1006.9
2016-08-28T01:56:15.058Z,1006.91
2016-08-28T01:57:15.065Z,1006.87
2016-08-28T01:58:15.073Z,1006.89
2016-08-28T01:59:15.081Z,1006.82
2016-08-28T02:00:15.085Z,1006.87
2016-08-28T02:01:15.094Z,1006.85
2016-08-28T02:02:15.101Z,1006.82
2016-08-28T02:03:15.110Z,1006.8
2016-08-28T02:04:15.127Z,1006.8
2016-08-28T02:05:15.124Z,1006.82
2016-08-28T02:06:15.131Z,1006.83
2016-08-28T02:07:15.138Z,1006.82
2016-08-28T02:08:15.147Z,1006.8
2016-08-28T02:09:15.152Z,1006.8
2016-08-28T02:10:15.162Z,1006.77
2016-08-28T02:11:15.168Z,1006.75
2016-08-28T02:12:15.175Z,1006.74
2016-08-28T02:13:15.184Z,1006.72
2016-08-28T02:14:15.196Z,1006.71
2016-08-28T02:15:15.198Z,1006.72
2016-08-28T02:16:15.215Z,1006.69
2016-08-28T02:17:15.215Z,1006.72
2016-08-28T02:18:15.223Z,1006.67
2016-08-28T02:19:15.229Z,1006.69
2016-08-28T02:20:15.237Z,1006.65
2016-08-28T02:21:15.245Z,1006.65
2016-08-28T02:22:16.152Z,1006.6
2016-08-28T02:23:15.261Z,1006.6
2016-08-28T02:24:15.269Z,1006.59
2016-08-28T02:25:15.277Z,1006.56
2016-08-28T02:26:15.285Z,1006.62
2016-08-28T02:27:15.293Z,1006.58
2016-08-28T02:28:15.300Z,1006.6
2016-08-28T02:29:15.309Z,1006.62
2016-08-28T02:30:15.316Z,1006.61
2016-08-28T02:31:15.325Z,1006.59
2016-08-28T02:32:15.333Z,1006.64
2016-08-28T02:33:15.341Z,1006.59
2016-08-28T02:34:15.348Z,1006.57
2016-08-28T02:35:15.357Z,1006.61
2016-08-28T02:36:15.366Z,1006.63
2016-08-28T02:37:15.972Z,1006.63
2016-08-28T02:38:15.381Z,1006.58
2016-08-28T02:39:15.389Z,1006.6
2016-08-28T02:40:15.397Z,1006.6
2016-08-28T02:41:15.404Z,1006.64
2016-08-28T02:42:15.413Z,1006.63
2016-08-28T02:43:15.420Z,1006.66
2016-08-28T02:44:15.477Z,1006.62
2016-08-28T02:45:15.435Z,1006.59
2016-08-28T02:46:15.444Z,1006.59
2016-08-28T02:47:15.452Z,1006.62
2016-08-28T02:48:15.460Z,1006.59
2016-08-28T02:49:15.468Z,1006.54
2016-08-28T02:50:15.476Z,1006.55
2016-08-28T02:51:15.485Z,1006.55
2016-08-28T02:52:15.491Z,1006.52
2016-08-28T02:53:15.500Z,1006.54
2016-08-28T02:54:15.509Z,1006.5
2016-08-28T02:55:15.515Z,1006.46
2016-08-28T02:56:15.524Z,1006.4
2016-08-28T02:57:15.530Z,1006.42
2016-08-28T02:58:15.539Z,1006.43
2016-08-28T02:59:15.747Z,1006.38
2016-08-28T03:00:15.555Z,1006.39
2016-08-28T03:01:15.564Z,1006.33
2016-08-28T03:02:15.571Z,1006.33
2016-08-28T03:03:15.580Z,1006.33
2016-08-28T03:04:15.590Z,1006.34
2016-08-28T03:05:15.596Z,1006.29
2016-08-28T03:06:15.604Z,1006.29
2016-08-28T03:07:15.612Z,1006.31
2016-08-28T03:08:15.619Z,1006.29
2016-08-28T03:09:15.630Z,1006.28
2016-08-28T03:10:15.636Z,1006.32
2016-08-28T03:11:15.642Z,1006.32
2016-08-28T03:12:15.652Z,1006.32
2016-08-28T03:13:15.660Z,1006.29
2016-08-28T03:14:15.668Z,1006.26
2016-08-28T03:15:15.676Z,1006.27
2016-08-28T03:16:15.686Z,1006.24
2016-08-28T03:17:15.692Z,1006.25
2016-08-28T03:18:15.701Z,1006.25
2016-08-28T03:19:15.710Z,1006.24
2016-08-28T03:20:15.719Z,1006.28
2016-08-28T03:21:15.727Z,1006.28
2016-08-28T03:22:15.735Z,1006.26
2016-08-28T03:23:15.744Z,1006.26
2016-08-28T03:24:15.753Z,1006.27
2016-08-28T03:25:15.759Z,1006.3
2016-08-28T03:26:15.768Z,1006.33
2016-08-28T03:27:15.778Z,1006.32
2016-08-28T03:28:15.785Z,1006.29
2016-08-28T03:29:15.793Z,1006.34
2016-08-28T03:30:15.851Z,1006.33
2016-08-28T03:31:15.810Z,1006.33
2016-08-28T03:32:15.818Z,1006.34
2016-08-28T03:33:15.827Z,1006.31
2016-08-28T03:34:15.833Z,1006.33
2016-08-28T03:35:15.842Z,1006.3
2016-08-28T03:36:15.851Z,1006.29
2016-08-28T03:37:15.860Z,1006.3
2016-08-28T03:38:15.869Z,1006.28
2016-08-28T03:39:15.876Z,1006.31
2016-08-28T03:40:15.884Z,1006.29
2016-08-28T03:41:15.897Z,1006.32
2016-08-28T03:42:15.901Z,1006.26
2016-08-28T03:43:15.907Z,1006.31
2016-08-28T03:44:15.916Z,1006.32
2016-08-28T03:45:16.977Z,1006.31
2016-08-28T03:46:15.933Z,1006.32
2016-08-28T03:47:15.942Z,1006.36
2016-08-28T03:48:15.950Z,1006.36
2016-08-28T03:49:15.958Z,1006.34
2016-08-28T03:50:15.966Z,1006.33
2016-08-28T03:51:15.975Z,1006.36
2016-08-28T03:52:15.985Z,1006.34
2016-08-28T03:53:15.993Z,1006.37
2016-08-28T03:54:16.000Z,1006.37
2016-08-28T03:55:16.008Z,1006.37
2016-08-28T03:56:16.017Z,1006.4
2016-08-28T03:57:16.023Z,1006.4
2016-08-28T03:58:16.031Z,1006.38
2016-08-28T03:59:16.089Z,1006.35
2016-08-28T04:00:16.048Z,1006.33
2016-08-28T04:01:16.055Z,1006.32
2016-08-28T04:02:16.062Z,1006.32
2016-08-28T04:03:16.071Z,1006.3
2016-08-28T04:04:16.078Z,1006.28
2016-08-28T04:05:16.085Z,1006.31
2016-08-28T04:06:16.093Z,1006.3
2016-08-28T04:07:17.201Z,1006.31
2016-08-28T04:08:16.107Z,1006.27
2016-08-28T04:09:16.114Z,1006.25
2016-08-28T04:10:16.122Z,1006.23
2016-08-28T04:11:16.129Z,1006.24
2016-08-28T04:12:16.138Z,1006.24
2016-08-28T04:13:16.145Z,1006.23
2016-08-28T04:14:16.154Z,1006.23
2016-08-28T04:15:16.162Z,1006.25
2016-08-28T04:16:16.168Z,1006.24
2016-08-28T04:17:16.176Z,1006.24
2016-08-28T04:18:16.184Z,1006.21
2016-08-28T04:19:16.192Z,1006.25
2016-08-28T04:20:16.204Z,1006.2
2016-08-28T04:21:16.210Z,1006.23
2016-08-28T04:22:16.216Z,1006.21
2016-08-28T04:23:16.224Z,1006.25
2016-08-28T04:24:16.233Z,1006.23
2016-08-28T04:25:16.241Z,1006.25
2016-08-28T04:26:16.251Z,1006.25
2016-08-28T04:27:16.256Z,1006.23
2016-08-28T04:28:16.264Z,1006.24
2016-08-28T04:29:17.223Z,1006.23
2016-08-28T04:30:16.279Z,1006.22
2016-08-28T04:31:16.286Z,1006.24
2016-08-28T04:32:16.296Z,1006.26
2016-08-28T04:33:16.303Z,1006.23
2016-08-28T04:34:16.312Z,1006.22
2016-08-28T04:35:16.319Z,1006.24
2016-08-28T04:36:16.328Z,1006.23
2016-08-28T04:37:16.338Z,1006.24
2016-08-28T04:38:16.344Z,1006.2
2016-08-28T04:39:16.353Z,1006.19
2016-08-28T04:40:16.361Z,1006.16
2016-08-28T04:41:16.368Z,1006.2
2016-08-28T04:42:16.377Z,1006.25
2016-08-28T04:43:16.385Z,1006.23
2016-08-28T04:44:16.391Z,1006.27
2016-08-28T04:45:16.400Z,1006.3
2016-08-28T04:46:16.409Z,1006.29
2016-08-28T04:47:16.416Z,1006.33
2016-08-28T04:48:16.424Z,1006.35
2016-08-28T04:49:16.433Z,1006.32
2016-08-28T04:50:16.440Z,1006.31
2016-08-28T04:51:17.149Z,1006.29
2016-08-28T04:52:16.454Z,1006.28
2016-08-28T04:53:16.463Z,1006.29
2016-08-28T04:54:16.472Z,1006.26
2016-08-28T04:55:16.482Z,1006.3
2016-08-28T04:56:16.486Z,1006.2
2016-08-28T04:57:16.493Z,1006.26
2016-08-28T04:58:16.503Z,1006.24
2016-08-28T04:59:16.511Z,1006.24
2016-08-28T05:00:16.521Z,1006.23
2016-08-28T05:01:16.527Z,1006.26
2016-08-28T05:02:16.535Z,1006.19
2016-08-28T05:03:16.544Z,1006.2
2016-08-28T05:04:16.550Z,1006.19
2016-08-28T05:05:16.609Z,1006.21
2016-08-28T05:06:16.868Z,1006.19
2016-08-28T05:07:16.573Z,1006.21
2016-08-28T05:08:16.582Z,1006.23
2016-08-28T05:09:16.593Z,1006.21
2016-08-28T05:10:16.598Z,1006.22
2016-08-28T05:11:16.608Z,1006.22
2016-08-28T05:12:16.616Z,1006.21
2016-08-28T05:13:16.622Z,1006.22
2016-08-28T05:14:16.631Z,1006.18
2016-08-28T05:15:16.639Z,1006.18
2016-08-28T05:16:16.648Z,1006.2
2016-08-28T05:17:16.658Z,1006.14
2016-08-28T05:18:16.663Z,1006.12
2016-08-28T05:19:16.672Z,1006.13
2016-08-28T05:20:16.682Z,1006.16
2016-08-28T05:21:16.689Z,1006.12
2016-08-28T05:22:16.699Z,1006.15
2016-08-28T05:23:16.705Z,1006.16
2016-08-28T05:24:16.714Z,1006.15
2016-08-28T05:25:16.721Z,1006.16
2016-08-28T05:26:16.730Z,1006.17
2016-08-28T05:27:16.739Z,1006.18
2016-08-28T05:28:16.746Z,1006.24
2016-08-28T05:29:16.755Z,1006.23
2016-08-28T05:30:16.762Z,1006.26
2016-08-28T05:31:16.773Z,1006.26
2016-08-28T05:32:16.781Z,1006.3
2016-08-28T05:33:16.789Z,1006.32
2016-08-28T05:34:16.797Z,1006.28
2016-08-28T05:35:16.806Z,1006.27
2016-08-28T05:36:16.815Z,1006.22
2016-08-28T05:37:17.675Z,1006.17
2016-08-28T05:38:16.831Z,1006.19
2016-08-28T05:39:16.841Z,1006.21
2016-08-28T05:40:16.849Z,1006.19
2016-08-28T05:41:16.857Z,1006.19
2016-08-28T05:42:16.867Z,1006.19
2016-08-28T05:43:16.876Z,1006.24
2016-08-28T05:44:16.884Z,1006.26
2016-08-28T05:45:16.892Z,1006.24
2016-08-28T05:46:16.900Z,1006.3
2016-08-28T05:47:16.960Z,1006.27
2016-08-28T05:48:16.919Z,1006.29
2016-08-28T05:49:16.926Z,1006.35
2016-08-28T05:50:16.935Z,1006.39
2016-08-28T05:51:16.943Z,1006.29
2016-08-28T05:52:17.703Z,1006.32
2016-08-28T05:53:16.961Z,1006.31
2016-08-28T05:54:16.969Z,1006.33
2016-08-28T05:55:16.977Z,1006.3
2016-08-28T05:56:16.988Z,1006.32
2016-08-28T05:57:16.994Z,1006.29
2016-08-28T05:58:17.005Z,1006.27
2016-08-28T05:59:17.012Z,1006.3
2016-08-28T06:00:17.020Z,1006.29
2016-08-28T06:01:17.030Z,1006.3
2016-08-28T06:02:17.038Z,1006.29
2016-08-28T06:03:17.044Z,1006.31
2016-08-28T06:04:17.053Z,1006.32
2016-08-28T06:05:17.062Z,1006.33
2016-08-28T06:06:17.069Z,1006.34
2016-08-28T06:07:17.080Z,1006.31
2016-08-28T06:08:17.089Z,1006.31
2016-08-28T06:09:17.096Z,1006.28
2016-08-28T06:10:17.104Z,1006.29
2016-08-28T06:11:17.114Z,1006.27
2016-08-28T06:12:17.121Z,1006.25
2016-08-28T06:13:17.130Z,1006.28
2016-08-28T06:14:17.790Z,1006.28
2016-08-28T06:15:17.148Z,1006.25
2016-08-28T06:16:17.156Z,1006.29
2016-08-28T06:17:17.164Z,1006.3
2016-08-28T06:18:17.173Z,1006.29
2016-08-28T06:19:17.182Z,1006.28
2016-08-28T06:20:17.190Z,1006.32
2016-08-28T06:21:17.199Z,1006.32
2016-08-28T06:22:17.207Z,1006.38
2016-08-28T06:23:17.215Z,1006.34
2016-08-28T06:24:17.223Z,1006.41
2016-08-28T06:25:17.233Z,1006.46
2016-08-28T06:26:17.241Z,1006.4
2016-08-28T06:27:17.251Z,1006.42
2016-08-28T06:28:17.258Z,1006.37
2016-08-28T06:29:17.268Z,1006.4
2016-08-28T06:30:17.291Z,1006.37
2016-08-28T06:31:17.286Z,1006.41
2016-08-28T06:32:17.294Z,1006.36
2016-08-28T06:33:17.304Z,1006.41
2016-08-28T06:34:17.313Z,1006.47
2016-08-28T06:35:17.320Z,1006.45
2016-08-28T06:36:17.432Z,1006.42
2016-08-28T06:37:17.391Z,1006.91
2016-08-28T06:38:17.350Z,1007.03
2016-08-28T06:39:17.357Z,1006.89
2016-08-28T06:40:17.369Z,1007.03
2016-08-28T06:41:17.395Z,1007.18
2016-08-28T06:42:17.390Z,1007.2
2016-08-28T06:43:17.401Z,1007.26
2016-08-28T06:44:17.417Z,1007.22
2016-08-28T06:45:17.421Z,1007.23
2016-08-28T06:46:17.432Z,1007.2
2016-08-28T06:47:17.444Z,1007.25
2016-08-28T06:48:17.456Z,1007.25
2016-08-28T06:49:17.467Z,1007.18
2016-08-28T06:50:17.479Z,1007.18
2016-08-28T06:51:17.491Z,1007.19
2016-08-28T06:52:17.503Z,1007.21
2016-08-28T06:53:17.514Z,1007.22
2016-08-28T06:54:17.525Z,1007.21
2016-08-28T06:55:17.540Z,1007.2
2016-08-28T06:56:17.551Z,1007.14
2016-08-28T06:57:17.563Z,1007.15
2016-08-28T06:58:17.575Z,1007.14
2016-08-28T06:59:17.587Z,1007.18
2016-08-28T07:00:18.724Z,1007.18
2016-08-28T07:01:17.611Z,1006.89
2016-08-28T07:02:17.675Z,1006.45
2016-08-28T07:03:17.636Z,1006.28
2016-08-28T07:04:17.648Z,1006.25
2016-08-28T07:05:17.660Z,1006.25
2016-08-28T07:06:17.671Z,1006.19
2016-08-28T07:07:17.681Z,1006.21
2016-08-28T07:08:17.692Z,1006.21
2016-08-28T07:09:17.702Z,1006.17
2016-08-28T07:10:17.714Z,1006.17
2016-08-28T07:11:17.724Z,1006.15
2016-08-28T07:12:17.732Z,1006.19
2016-08-28T07:13:17.744Z,1006.22
2016-08-28T07:14:17.755Z,1006.22
2016-08-28T07:15:17.764Z,1006.2
2016-08-28T07:16:17.775Z,1006.23
2016-08-28T07:17:17.784Z,1006.17
2016-08-28T07:18:17.845Z,1006.13
2016-08-28T07:19:17.804Z,1006.1
2016-08-28T07:20:17.815Z,1006.15
2016-08-28T07:21:17.824Z,1006.13
2016-08-28T07:22:18.785Z,1006.1
2016-08-28T07:23:17.844Z,1006.13
2016-08-28T07:24:17.854Z,1006.07
2016-08-28T07:25:17.865Z,1006.11
2016-08-28T07:26:17.873Z,1006.12
2016-08-28T07:27:17.884Z,1006.08
2016-08-28T07:28:17.892Z,1006.11
2016-08-28T07:29:17.902Z,1006.07
2016-08-28T07:30:17.914Z,1006.05
2016-08-28T07:31:17.924Z,1006.02
2016-08-28T07:32:17.931Z,1006.01
2016-08-28T07:33:17.940Z,1006.02
2016-08-28T07:34:17.957Z,1005.97
2016-08-28T07:35:17.961Z,1005.98
2016-08-28T07:36:17.969Z,1005.98
2016-08-28T07:37:17.980Z,1006
2016-08-28T07:38:17.990Z,1005.95
2016-08-28T07:39:17.999Z,1005.96
2016-08-28T07:40:18.007Z,1005.92
2016-08-28T07:41:18.017Z,1005.94
2016-08-28T07:42:18.027Z,1005.93
2016-08-28T07:43:18.038Z,1005.94
2016-08-28T07:44:18.298Z,1005.93
2016-08-28T07:45:18.057Z,1005.96
2016-08-28T07:46:18.066Z,1005.95
2016-08-28T07:47:18.077Z,1005.95
2016-08-28T07:48:18.085Z,1006
2016-08-28T07:49:18.095Z,1005.96
2016-08-28T07:50:18.105Z,1005.97
2016-08-28T07:51:18.112Z,1005.95
2016-08-28T07:52:18.122Z,1005.97
2016-08-28T07:53:18.132Z,1005.94
2016-08-28T07:54:18.143Z,1005.96
2016-08-28T07:55:18.151Z,1005.97
2016-08-28T07:56:18.162Z,1005.95
2016-08-28T07:57:18.170Z,1005.94
2016-08-28T07:58:18.180Z,1006
2016-08-28T07:59:18.194Z,1005.94
2016-08-28T08:00:18.199Z,1005.98
2016-08-28T08:01:18.206Z,1005.97
2016-08-28T08:02:18.217Z,1005.96
2016-08-28T08:03:18.227Z,1005.94
2016-08-28T08:04:18.236Z,1005.94
2016-08-28T08:05:18.245Z,1005.99
2016-08-28T08:06:18.255Z,1005.96
2016-08-28T08:07:18.261Z,1005.94
2016-08-28T08:08:19.174Z,1005.96
2016-08-28T08:09:18.281Z,1005.96
2016-08-28T08:10:18.292Z,1005.93
2016-08-28T08:11:18.301Z,1005.94
2016-08-28T08:12:18.311Z,1005.97
2016-08-28T08:13:18.320Z,1005.95
2016-08-28T08:14:18.328Z,1005.97
2016-08-28T08:15:18.338Z,1006.01
2016-08-28T08:16:18.348Z,1006.03
2016-08-28T08:17:18.357Z,1006.01
2016-08-28T08:18:18.366Z,1006.01
2016-08-28T08:19:18.375Z,1006.02
2016-08-28T08:20:18.384Z,1005.98
2016-08-28T08:21:18.392Z,1005.96
2016-08-28T08:22:18.403Z,1005.98
2016-08-28T08:23:18.413Z,1005.91
2016-08-28T08:24:18.421Z,1005.95
2016-08-28T08:25:18.432Z,1005.9
2016-08-28T08:26:18.490Z,1005.89
2016-08-28T08:27:18.450Z,1005.87
2016-08-28T08:28:18.459Z,1005.86
2016-08-28T08:29:18.469Z,1005.85
2016-08-28T08:30:19.029Z,1005.91
2016-08-28T08:31:18.485Z,1005.9
2016-08-28T08:32:18.496Z,1005.9
2016-08-28T08:33:18.505Z,1005.87
2016-08-28T08:34:18.514Z,1005.87
2016-08-28T08:35:18.523Z,1005.91
2016-08-28T08:36:18.532Z,1005.91
2016-08-28T08:37:18.543Z,1005.87
2016-08-28T08:38:18.601Z,1005.89
2016-08-28T08:39:18.560Z,1005.91
2016-08-28T08:40:18.570Z,1005.94
2016-08-28T08:41:18.580Z,1005.89
2016-08-28T08:42:18.587Z,1005.88
2016-08-28T08:43:18.597Z,1005.88
2016-08-28T08:44:18.607Z,1005.87
2016-08-28T08:45:18.667Z,1005.89
2016-08-28T08:46:18.624Z,1005.9
2016-08-28T08:47:18.641Z,1005.84
2016-08-28T08:48:18.645Z,1005.94
2016-08-28T08:49:18.654Z,1005.84
2016-08-28T08:50:18.663Z,1005.83
2016-08-28T08:51:18.673Z,1005.84
2016-08-28T08:52:19.233Z,1005.85
2016-08-28T08:53:18.889Z,1005.89
2016-08-28T08:54:18.701Z,1005.83
2016-08-28T08:55:18.711Z,1005.84
2016-08-28T08:56:18.719Z,1005.86
2016-08-28T08:57:18.729Z,1005.81
2016-08-28T08:58:18.739Z,1005.82
2016-08-28T08:59:18.747Z,1005.8
2016-08-28T09:00:18.759Z,1005.8
2016-08-28T09:01:18.766Z,1005.81
2016-08-28T09:02:18.776Z,1005.77
2016-08-28T09:03:18.786Z,1005.79
2016-08-28T09:04:18.793Z,1005.77
2016-08-28T09:05:18.806Z,1005.77
2016-08-28T09:06:18.815Z,1005.77
2016-08-28T09:07:19.275Z,1005.75
2016-08-28T09:08:18.833Z,1005.75
2016-08-28T09:09:18.842Z,1005.69
2016-08-28T09:10:18.853Z,1005.75
2016-08-28T09:11:18.862Z,1005.71
2016-08-28T09:12:18.871Z,1005.74
2016-08-28T09:13:18.882Z,1005.77
2016-08-28T09:14:18.890Z,1005.76
2016-08-28T09:15:18.899Z,1005.78
2016-08-28T09:16:18.909Z,1005.76
2016-08-28T09:17:18.919Z,1005.76
2016-08-28T09:18:18.929Z,1005.75
2016-08-28T09:19:18.938Z,1005.73
2016-08-28T09:20:18.948Z,1005.78
2016-08-28T09:21:18.956Z,1005.8
2016-08-28T09:22:18.967Z,1005.75
2016-08-28T09:23:18.982Z,1005.76
2016-08-28T09:24:18.988Z,1005.79
2016-08-28T09:25:18.996Z,1005.78
2016-08-28T09:26:19.004Z,1005.72
2016-08-28T09:27:19.017Z,1005.8
2016-08-28T09:28:19.025Z,1005.71
2016-08-28T09:29:19.235Z,1005.74
2016-08-28T09:30:19.043Z,1005.81
2016-08-28T09:31:19.054Z,1005.79
2016-08-28T09:32:19.065Z,1005.81
2016-08-28T09:33:19.072Z,1005.83
2016-08-28T09:34:19.082Z,1005.84
2016-08-28T09:35:19.093Z,1005.88
2016-08-28T09:36:19.101Z,1005.78
2016-08-28T09:37:19.111Z,1005.83
2016-08-28T09:38:20.172Z,1005.8
2016-08-28T09:39:19.132Z,1005.85
2016-08-28T09:40:19.141Z,1005.77
2016-08-28T09:41:19.150Z,1005.82
2016-08-28T09:42:19.157Z,1005.81
2016-08-28T09:43:19.168Z,1005.81
2016-08-28T09:44:19.176Z,1005.8
2016-08-28T09:45:19.187Z,1005.81
2016-08-28T09:46:19.197Z,1005.77
2016-08-28T09:47:19.206Z,1005.74
2016-08-28T09:48:19.214Z,1005.78
2016-08-28T09:49:19.225Z,1005.79
2016-08-28T09:50:19.237Z,1005.75
2016-08-28T09:51:19.246Z,1005.72
2016-08-28T09:52:19.252Z,1005.73
2016-08-28T09:53:20.265Z,1005.76
2016-08-28T09:54:19.273Z,1005.73
2016-08-28T09:55:19.282Z,1005.72
2016-08-28T09:56:19.290Z,1005.73
2016-08-28T09:57:19.302Z,1005.71
2016-08-28T09:58:19.361Z,1005.71
2016-08-28T09:59:19.320Z,1005.69
2016-08-28T10:00:19.328Z,1005.61
2016-08-28T10:01:19.341Z,1005.64
2016-08-28T10:02:19.354Z,1005.64
2016-08-28T10:03:19.359Z,1005.7
2016-08-28T10:04:19.418Z,1005.68
2016-08-28T10:05:19.378Z,1005.67
2016-08-28T10:06:19.386Z,1005.65
2016-08-28T10:07:19.397Z,1005.66
2016-08-28T10:08:19.406Z,1005.67
2016-08-28T10:09:19.416Z,1005.66
2016-08-28T10:10:19.426Z,1005.59
2016-08-28T10:11:19.434Z,1005.61
2016-08-28T10:12:19.445Z,1005.61
2016-08-28T10:13:19.455Z,1005.63
2016-08-28T10:14:19.463Z,1005.61
2016-08-28T10:15:20.324Z,1005.6
2016-08-28T10:16:19.532Z,1005.59
2016-08-28T10:17:19.491Z,1005.6
2016-08-28T10:18:19.501Z,1005.58
2016-08-28T10:19:19.510Z,1005.61
2016-08-28T10:20:19.521Z,1005.65
2016-08-28T10:21:19.529Z,1005.59
2016-08-28T10:22:19.539Z,1005.58
2016-08-28T10:23:19.551Z,1005.58
2016-08-28T10:24:19.558Z,1005.55
2016-08-28T10:25:19.567Z,1005.64
2016-08-28T10:26:19.576Z,1005.65
2016-08-28T10:27:19.586Z,1005.63
2016-08-28T10:28:19.594Z,1005.57
2016-08-28T10:29:19.604Z,1005.66
2016-08-28T10:30:19.614Z,1005.57
2016-08-28T10:31:19.623Z,1005.83
2016-08-28T10:32:19.632Z,1005.6
2016-08-28T10:33:19.640Z,1005.72
2016-08-28T10:34:19.651Z,1005.64
2016-08-28T10:35:19.660Z,1005.62
2016-08-28T10:36:19.669Z,1005.58
2016-08-28T10:37:20.331Z,1005.63
2016-08-28T10:38:19.688Z,1005.6
2016-08-28T10:39:19.697Z,1005.57
2016-08-28T10:40:19.707Z,1005.62
2016-08-28T10:41:19.717Z,1005.61
2016-08-28T10:42:19.726Z,1005.77
2016-08-28T10:43:19.737Z,1005.65
2016-08-28T10:44:19.746Z,1005.62
2016-08-28T10:45:19.755Z,1005.64
2016-08-28T10:46:19.764Z,1005.59
2016-08-28T10:47:19.774Z,1005.57
2016-08-28T10:48:19.784Z,1005.61
2016-08-28T10:49:19.792Z,1005.53
2016-08-28T10:50:19.803Z,1005.65
2016-08-28T10:51:19.812Z,1005.57
2016-08-28T10:52:19.822Z,1005.65
2016-08-28T10:53:19.832Z,1005.56
2016-08-28T10:54:19.840Z,1005.58
2016-08-28T10:55:19.850Z,1005.59
2016-08-28T10:56:19.859Z,1005.52
2016-08-28T10:57:19.869Z,1005.76
2016-08-28T10:58:19.879Z,1005.74
2016-08-28T10:59:19.890Z,1005.57
2016-08-28T11:00:19.899Z,1005.74
2016-08-28T11:01:19.907Z,1005.63
2016-08-28T11:02:19.917Z,1005.6
2016-08-28T11:03:19.928Z,1005.65
2016-08-28T11:04:19.937Z,1005.65
2016-08-28T11:05:19.947Z,1005.7
2016-08-28T11:06:19.956Z,1005.67
2016-08-28T11:07:19.966Z,1005.67
2016-08-28T11:08:19.974Z,1005.66
2016-08-28T11:09:19.985Z,1005.72
2016-08-28T11:10:19.995Z,1005.65
2016-08-28T11:11:20.005Z,1005.81
2016-08-28T11:12:20.014Z,1005.84
2016-08-28T11:13:20.024Z,1005.84
2016-08-28T11:14:20.034Z,1005.82
2016-08-28T11:15:20.045Z,1005.82
2016-08-28T11:16:20.053Z,1005.89
2016-08-28T11:17:20.062Z,1005.9
2016-08-28T11:18:20.073Z,1005.88
2016-08-28T11:19:20.081Z,1005.85
2016-08-28T11:20:20.093Z,1005.9
2016-08-28T11:21:20.101Z,1005.91
2016-08-28T11:22:20.110Z,1005.93
2016-08-28T11:23:20.621Z,1005.98
2016-08-28T11:24:20.129Z,1005.92
2016-08-28T11:25:20.190Z,1005.93
2016-08-28T11:26:20.149Z,1006.04
2016-08-28T11:27:20.159Z,1006.03
2016-08-28T11:28:20.168Z,1006.06
2016-08-28T11:29:20.177Z,1005.97
2016-08-28T11:30:20.188Z,1005.99
2016-08-28T11:31:20.199Z,1006.07
2016-08-28T11:32:20.208Z,1006.07
2016-08-28T11:33:20.219Z,1006.09
2016-08-28T11:34:20.225Z,1006.03
2016-08-28T11:35:20.238Z,1006.08
2016-08-28T11:36:20.247Z,1006.09
2016-08-28T11:37:20.257Z,1006.04
2016-08-28T11:38:20.264Z,1006.08
2016-08-28T11:39:20.277Z,1006.16
2016-08-28T11:40:20.284Z,1006.1
2016-08-28T11:41:20.293Z,1006.12
2016-08-28T11:42:20.303Z,1006.11
2016-08-28T11:43:20.312Z,1006.16
2016-08-28T11:44:20.324Z,1006.08
2016-08-28T11:45:20.481Z,1006.18
2016-08-28T11:46:20.342Z,1006.27
2016-08-28T11:47:20.352Z,1006.29
2016-08-28T11:48:20.361Z,1006.38
2016-08-28T11:49:20.371Z,1006.24
2016-08-28T11:50:20.380Z,1006.18
2016-08-28T11:51:20.390Z,1006.24
2016-08-28T11:52:20.398Z,1006.21
2016-08-28T11:53:20.408Z,1006.26
2016-08-28T11:54:20.418Z,1006.29
2016-08-28T11:55:20.427Z,1006.23
2016-08-28T11:56:20.437Z,1006.32
2016-08-28T11:57:20.451Z,1006.3
2016-08-28T11:58:20.455Z,1006.24
2016-08-28T11:59:20.466Z,1006.39
2016-08-28T12:00:20.490Z,1006.48
2016-08-28T12:01:20.484Z,1006.33
2016-08-28T12:02:20.499Z,1006.37
2016-08-28T12:03:20.502Z,1006.36
2016-08-28T12:04:20.514Z,1006.69
2016-08-28T12:05:20.522Z,1006.66
2016-08-28T12:06:20.535Z,1006.52
2016-08-28T12:07:20.543Z,1006.53
2016-08-28T12:08:20.552Z,1006.52